sensor_id;sensor_type;location;lat;lon;timestamp;P1;durP1;ratioP1;P2;durP2;ratioP2
50932;SDS011;36921;49.006;9.292;2023-04-12T00:00:05;4.40;;;1.90;;
50932;SDS011;36921;49.006;9.292;2023-04-12T00:02:35;6.68;;;1.35;;
50932;SDS011;36921;49.006;9.292;2023-04-12T00:05:01;5.57;;;1.17;;
50932;SDS011;36921;49.006;9.292;2023-04-12T00:07:26;6.60;;;1.58;;
50932;SDS011;36921;49.006;9.292;2023-04-12T00:09:53;7.50;;;1.80;;
50932;SDS011;36921;49.006;9.292;2023-04-12T00:12:18;7.00;;;1.70;;
50932;SDS011;36921;49.006;9.292;2023-04-12T00:14:44;3.55;;;1.67;;
50932;SDS011;36921;49.006;9.292;2023-04-12T00:17:10;8.65;;;1.88;;
50932;SDS011;36921;49.006;9.292;2023-04-12T00:19:36;10.05;;;1.50;;
50932;SDS011;36921;49.006;9.292;2023-04-12T00:22:06;5.32;;;1.38;;
50932;SDS011;36921;49.006;9.292;2023-04-12T00:24:32;6.53;;;1.58;;
50932;SDS011;36921;49.006;9.292;2023-04-12T00:26:58;4.78;;;1.33;;
50932;SDS011;36921;49.006;9.292;2023-04-12T00:29:25;6.03;;;1.20;;
50932;SDS011;36921;49.006;9.292;2023-04-12T00:31:51;7.05;;;1.45;;
50932;SDS011;36921;49.006;9.292;2023-04-12T00:34:17;6.20;;;2.05;;
50932;SDS011;36921;49.006;9.292;2023-04-12T00:36:42;9.18;;;1.65;;
50932;SDS011;36921;49.006;9.292;2023-04-12T00:39:07;2.78;;;1.33;;
50932;SDS011;36921;49.006;9.292;2023-04-12T00:41:35;3.88;;;1.38;;
50932;SDS011;36921;49.006;9.292;2023-04-12T00:44:01;6.60;;;1.70;;
50932;SDS011;36921;49.006;9.292;2023-04-12T00:46:26;4.15;;;1.40;;
50932;SDS011;36921;49.006;9.292;2023-04-12T00:48:53;5.85;;;1.65;;
50932;SDS011;36921;49.006;9.292;2023-04-12T00:51:20;8.80;;;1.55;;
50932;SDS011;36921;49.006;9.292;2023-04-12T00:53:46;7.50;;;1.70;;
50932;SDS011;36921;49.006;9.292;2023-04-12T00:56:12;5.97;;;1.98;;
50932;SDS011;36921;49.006;9.292;2023-04-12T00:58:38;4.53;;;1.73;;
50932;SDS011;36921;49.006;9.292;2023-04-12T01:01:04;6.10;;;1.48;;
50932;SDS011;36921;49.006;9.292;2023-04-12T01:03:29;6.85;;;1.75;;
50932;SDS011;36921;49.006;9.292;2023-04-12T01:06:03;4.20;;;1.80;;
50932;SDS011;36921;49.006;9.292;2023-04-12T01:11:25;3.35;;;1.60;;
50932;SDS011;36921;49.006;9.292;2023-04-12T01:16:47;6.38;;;1.90;;
50932;SDS011;36921;49.006;9.292;2023-04-12T01:19:31;10.25;;;2.70;;
50932;SDS011;36921;49.006;9.292;2023-04-12T01:24:59;4.32;;;2.03;;
50932;SDS011;36921;49.006;9.292;2023-04-12T01:27:37;10.07;;;2.38;;
50932;SDS011;36921;49.006;9.292;2023-04-12T01:30:07;7.25;;;1.88;;
50932;SDS011;36921;49.006;9.292;2023-04-12T01:32:36;5.10;;;2.30;;
50932;SDS011;36921;49.006;9.292;2023-04-12T01:35:03;6.35;;;2.60;;
50932;SDS011;36921;49.006;9.292;2023-04-12T01:37:32;13.65;;;2.60;;
50932;SDS011;36921;49.006;9.292;2023-04-12T01:39:58;8.38;;;2.53;;
50932;SDS011;36921;49.006;9.292;2023-04-12T01:42:25;9.50;;;2.28;;
50932;SDS011;36921;49.006;9.292;2023-04-12T01:44:50;6.20;;;2.38;;
50932;SDS011;36921;49.006;9.292;2023-04-12T01:47:15;6.20;;;2.58;;
50932;SDS011;36921;49.006;9.292;2023-04-12T01:49:54;7.65;;;2.45;;
50932;SDS011;36921;49.006;9.292;2023-04-12T01:52:28;7.75;;;2.58;;
50932;SDS011;36921;49.006;9.292;2023-04-12T01:54:56;8.88;;;2.53;;
50932;SDS011;36921;49.006;9.292;2023-04-12T01:57:22;10.80;;;2.90;;
50932;SDS011;36921;49.006;9.292;2023-04-12T01:59:50;12.43;;;2.92;;
50932;SDS011;36921;49.006;9.292;2023-04-12T02:02:17;10.27;;;3.03;;
50932;SDS011;36921;49.006;9.292;2023-04-12T02:04:43;11.25;;;3.05;;
50932;SDS011;36921;49.006;9.292;2023-04-12T02:07:09;7.15;;;2.45;;
50932;SDS011;36921;49.006;9.292;2023-04-12T02:09:36;9.52;;;3.45;;
50932;SDS011;36921;49.006;9.292;2023-04-12T02:12:02;8.55;;;2.92;;
50932;SDS011;36921;49.006;9.292;2023-04-12T02:14:28;16.48;;;2.92;;
50932;SDS011;36921;49.006;9.292;2023-04-12T02:16:55;8.73;;;2.28;;
50932;SDS011;36921;49.006;9.292;2023-04-12T02:19:22;8.00;;;2.20;;
50932;SDS011;36921;49.006;9.292;2023-04-12T02:21:47;10.43;;;2.05;;
50932;SDS011;36921;49.006;9.292;2023-04-12T02:24:13;11.35;;;2.78;;
50932;SDS011;36921;49.006;9.292;2023-04-12T02:26:38;9.13;;;2.05;;
50932;SDS011;36921;49.006;9.292;2023-04-12T02:29:04;7.25;;;2.40;;
50932;SDS011;36921;49.006;9.292;2023-04-12T02:31:33;9.13;;;2.33;;
50932;SDS011;36921;49.006;9.292;2023-04-12T02:34:00;9.38;;;2.47;;
50932;SDS011;36921;49.006;9.292;2023-04-12T02:36:26;5.70;;;2.13;;
50932;SDS011;36921;49.006;9.292;2023-04-12T02:38:51;8.07;;;2.28;;
50932;SDS011;36921;49.006;9.292;2023-04-12T02:41:17;4.32;;;2.13;;
50932;SDS011;36921;49.006;9.292;2023-04-12T02:43:42;9.32;;;2.45;;
50932;SDS011;36921;49.006;9.292;2023-04-12T02:46:08;7.00;;;2.88;;
50932;SDS011;36921;49.006;9.292;2023-04-12T02:48:33;6.03;;;2.10;;
50932;SDS011;36921;49.006;9.292;2023-04-12T02:50:59;7.93;;;2.30;;
50932;SDS011;36921;49.006;9.292;2023-04-12T02:53:24;8.52;;;2.53;;
50932;SDS011;36921;49.006;9.292;2023-04-12T02:55:49;13.50;;;2.80;;
50932;SDS011;36921;49.006;9.292;2023-04-12T02:58:15;9.32;;;2.22;;
50932;SDS011;36921;49.006;9.292;2023-04-12T03:00:40;6.10;;;2.13;;
50932;SDS011;36921;49.006;9.292;2023-04-12T03:03:08;4.50;;;1.92;;
50932;SDS011;36921;49.006;9.292;2023-04-12T03:05:33;8.32;;;2.42;;
50932;SDS011;36921;49.006;9.292;2023-04-12T03:07:58;7.82;;;2.63;;
50932;SDS011;36921;49.006;9.292;2023-04-12T03:10:24;7.25;;;2.42;;
50932;SDS011;36921;49.006;9.292;2023-04-12T03:12:49;8.48;;;2.65;;
50932;SDS011;36921;49.006;9.292;2023-04-12T03:15:15;10.80;;;2.28;;
50932;SDS011;36921;49.006;9.292;2023-04-12T03:17:41;9.30;;;2.65;;
50932;SDS011;36921;49.006;9.292;2023-04-12T03:20:07;10.32;;;2.33;;
50932;SDS011;36921;49.006;9.292;2023-04-12T03:22:33;12.30;;;2.17;;
50932;SDS011;36921;49.006;9.292;2023-04-12T03:25:00;9.38;;;2.55;;
50932;SDS011;36921;49.006;9.292;2023-04-12T03:27:26;9.25;;;1.95;;
50932;SDS011;36921;49.006;9.292;2023-04-12T03:29:52;5.18;;;1.98;;
50932;SDS011;36921;49.006;9.292;2023-04-12T03:32:17;6.32;;;2.20;;
50932;SDS011;36921;49.006;9.292;2023-04-12T03:34:42;8.05;;;2.17;;
50932;SDS011;36921;49.006;9.292;2023-04-12T03:37:09;9.52;;;2.50;;
50932;SDS011;36921;49.006;9.292;2023-04-12T03:39:34;8.18;;;2.67;;
50932;SDS011;36921;49.006;9.292;2023-04-12T03:42:00;7.18;;;2.53;;
50932;SDS011;36921;49.006;9.292;2023-04-12T03:44:25;7.47;;;2.50;;
50932;SDS011;36921;49.006;9.292;2023-04-12T03:46:50;4.55;;;2.45;;
50932;SDS011;36921;49.006;9.292;2023-04-12T03:49:16;8.50;;;2.60;;
50932;SDS011;36921;49.006;9.292;2023-04-12T03:51:41;9.18;;;2.35;;
50932;SDS011;36921;49.006;9.292;2023-04-12T03:54:12;6.07;;;2.13;;
50932;SDS011;36921;49.006;9.292;2023-04-12T03:56:37;10.27;;;2.47;;
50932;SDS011;36921;49.006;9.292;2023-04-12T03:59:04;8.10;;;2.60;;
50932;SDS011;36921;49.006;9.292;2023-04-12T04:01:31;7.35;;;2.60;;
50932;SDS011;36921;49.006;9.292;2023-04-12T04:03:58;5.30;;;2.67;;
50932;SDS011;36921;49.006;9.292;2023-04-12T04:06:23;5.28;;;2.05;;
50932;SDS011;36921;49.006;9.292;2023-04-12T04:08:49;9.35;;;2.20;;
50932;SDS011;36921;49.006;9.292;2023-04-12T04:11:14;4.60;;;2.03;;
50932;SDS011;36921;49.006;9.292;2023-04-12T04:13:40;5.10;;;1.83;;
50932;SDS011;36921;49.006;9.292;2023-04-12T04:16:05;4.93;;;2.33;;
50932;SDS011;36921;49.006;9.292;2023-04-12T04:18:33;5.07;;;2.35;;
50932;SDS011;36921;49.006;9.292;2023-04-12T04:20:59;7.05;;;1.98;;
50932;SDS011;36921;49.006;9.292;2023-04-12T04:23:25;3.80;;;1.80;;
50932;SDS011;36921;49.006;9.292;2023-04-12T04:25:53;4.32;;;2.08;;
50932;SDS011;36921;49.006;9.292;2023-04-12T04:28:18;8.25;;;3.10;;
50932;SDS011;36921;49.006;9.292;2023-04-12T04:30:44;7.60;;;2.00;;
50932;SDS011;36921;49.006;9.292;2023-04-12T04:33:10;3.80;;;2.00;;
50932;SDS011;36921;49.006;9.292;2023-04-12T04:35:39;5.85;;;2.15;;
50932;SDS011;36921;49.006;9.292;2023-04-12T04:38:05;5.65;;;2.67;;
50932;SDS011;36921;49.006;9.292;2023-04-12T04:40:31;5.85;;;2.75;;
50932;SDS011;36921;49.006;9.292;2023-04-12T04:42:56;6.88;;;2.08;;
50932;SDS011;36921;49.006;9.292;2023-04-12T04:45:23;9.02;;;2.85;;
50932;SDS011;36921;49.006;9.292;2023-04-12T04:50:19;7.53;;;1.63;;
50932;SDS011;36921;49.006;9.292;2023-04-12T04:52:45;6.22;;;2.22;;
50932;SDS011;36921;49.006;9.292;2023-04-12T04:55:12;6.63;;;2.28;;
50932;SDS011;36921;49.006;9.292;2023-04-12T04:57:38;5.03;;;1.80;;
50932;SDS011;36921;49.006;9.292;2023-04-12T05:00:04;3.53;;;1.80;;
50932;SDS011;36921;49.006;9.292;2023-04-12T05:02:38;4.38;;;1.58;;
50932;SDS011;36921;49.006;9.292;2023-04-12T05:05:07;5.63;;;1.98;;
50932;SDS011;36921;49.006;9.292;2023-04-12T05:07:37;6.07;;;1.85;;
50932;SDS011;36921;49.006;9.292;2023-04-12T05:10:03;4.50;;;1.88;;
50932;SDS011;36921;49.006;9.292;2023-04-12T05:12:28;3.33;;;1.70;;
50932;SDS011;36921;49.006;9.292;2023-04-12T05:14:55;5.50;;;2.20;;
50932;SDS011;36921;49.006;9.292;2023-04-12T05:17:20;5.35;;;2.10;;
50932;SDS011;36921;49.006;9.292;2023-04-12T05:19:46;5.20;;;2.20;;
50932;SDS011;36921;49.006;9.292;2023-04-12T05:22:11;5.68;;;1.77;;
50932;SDS011;36921;49.006;9.292;2023-04-12T05:24:37;4.55;;;1.85;;
50932;SDS011;36921;49.006;9.292;2023-04-12T05:27:03;3.45;;;1.80;;
50932;SDS011;36921;49.006;9.292;2023-04-12T05:29:28;3.35;;;1.58;;
50932;SDS011;36921;49.006;9.292;2023-04-12T05:31:54;6.78;;;1.80;;
50932;SDS011;36921;49.006;9.292;2023-04-12T05:34:22;3.20;;;1.70;;
50932;SDS011;36921;49.006;9.292;2023-04-12T05:37:06;2.90;;;1.40;;
50932;SDS011;36921;49.006;9.292;2023-04-12T05:39:32;5.07;;;1.70;;
50932;SDS011;36921;49.006;9.292;2023-04-12T05:41:57;8.23;;;1.98;;
50932;SDS011;36921;49.006;9.292;2023-04-12T05:44:22;4.45;;;1.70;;
50932;SDS011;36921;49.006;9.292;2023-04-12T05:46:48;5.88;;;1.90;;
50932;SDS011;36921;49.006;9.292;2023-04-12T05:49:13;8.48;;;2.45;;
50932;SDS011;36921;49.006;9.292;2023-04-12T05:51:40;4.88;;;1.33;;
50932;SDS011;36921;49.006;9.292;2023-04-12T05:57:28;4.75;;;1.67;;
50932;SDS011;36921;49.006;9.292;2023-04-12T05:59:53;6.05;;;2.22;;
50932;SDS011;36921;49.006;9.292;2023-04-12T06:02:19;3.90;;;2.03;;
50932;SDS011;36921;49.006;9.292;2023-04-12T06:04:44;4.57;;;1.92;;
50932;SDS011;36921;49.006;9.292;2023-04-12T06:07:10;3.50;;;1.58;;
50932;SDS011;36921;49.006;9.292;2023-04-12T06:09:35;7.00;;;2.00;;
50932;SDS011;36921;49.006;9.292;2023-04-12T06:12:01;4.47;;;1.75;;
50932;SDS011;36921;49.006;9.292;2023-04-12T06:14:39;3.95;;;1.80;;
50932;SDS011;36921;49.006;9.292;2023-04-12T06:17:30;3.83;;;1.73;;
50932;SDS011;36921;49.006;9.292;2023-04-12T06:19:56;6.25;;;2.08;;
50932;SDS011;36921;49.006;9.292;2023-04-12T06:22:21;4.53;;;1.80;;
50932;SDS011;36921;49.006;9.292;2023-04-12T06:25:02;5.10;;;2.00;;
50932;SDS011;36921;49.006;9.292;2023-04-12T06:27:27;4.82;;;1.70;;
50932;SDS011;36921;49.006;9.292;2023-04-12T06:29:53;3.58;;;1.77;;
50932;SDS011;36921;49.006;9.292;2023-04-12T06:32:18;5.32;;;1.58;;
50932;SDS011;36921;49.006;9.292;2023-04-12T06:34:44;2.88;;;1.48;;
50932;SDS011;36921;49.006;9.292;2023-04-12T06:37:09;3.72;;;1.67;;
50932;SDS011;36921;49.006;9.292;2023-04-12T06:39:34;5.40;;;2.10;;
50932;SDS011;36921;49.006;9.292;2023-04-12T06:42:00;5.18;;;2.33;;
50932;SDS011;36921;49.006;9.292;2023-04-12T06:44:26;6.40;;;1.75;;
50932;SDS011;36921;49.006;9.292;2023-04-12T06:46:52;5.68;;;2.08;;
50932;SDS011;36921;49.006;9.292;2023-04-12T06:49:17;4.32;;;1.75;;
50932;SDS011;36921;49.006;9.292;2023-04-12T06:51:43;5.10;;;1.80;;
50932;SDS011;36921;49.006;9.292;2023-04-12T06:54:08;2.80;;;1.92;;
50932;SDS011;36921;49.006;9.292;2023-04-12T06:56:35;6.93;;;2.17;;
50932;SDS011;36921;49.006;9.292;2023-04-12T06:59:01;6.45;;;1.90;;
50932;SDS011;36921;49.006;9.292;2023-04-12T07:01:26;4.35;;;1.63;;
50932;SDS011;36921;49.006;9.292;2023-04-12T07:03:51;4.15;;;1.58;;
50932;SDS011;36921;49.006;9.292;2023-04-12T07:06:17;3.85;;;1.70;;
50932;SDS011;36921;49.006;9.292;2023-04-12T07:08:42;6.72;;;1.60;;
50932;SDS011;36921;49.006;9.292;2023-04-12T07:14:12;2.65;;;1.35;;
50932;SDS011;36921;49.006;9.292;2023-04-12T07:16:37;5.38;;;1.50;;
50932;SDS011;36921;49.006;9.292;2023-04-12T07:19:04;3.30;;;1.38;;
50932;SDS011;36921;49.006;9.292;2023-04-12T07:21:29;7.35;;;1.63;;
50932;SDS011;36921;49.006;9.292;2023-04-12T07:23:55;3.42;;;1.58;;
50932;SDS011;36921;49.006;9.292;2023-04-12T07:26:20;3.58;;;1.63;;
50932;SDS011;36921;49.006;9.292;2023-04-12T07:28:46;4.43;;;1.55;;
50932;SDS011;36921;49.006;9.292;2023-04-12T07:31:11;3.58;;;1.60;;
50932;SDS011;36921;49.006;9.292;2023-04-12T07:33:36;1.95;;;1.38;;
50932;SDS011;36921;49.006;9.292;2023-04-12T07:36:02;2.42;;;1.60;;
50932;SDS011;36921;49.006;9.292;2023-04-12T07:38:28;3.72;;;1.92;;
50932;SDS011;36921;49.006;9.292;2023-04-12T07:40:54;4.53;;;1.60;;
50932;SDS011;36921;49.006;9.292;2023-04-12T07:43:20;2.53;;;1.13;;
50932;SDS011;36921;49.006;9.292;2023-04-12T07:45:45;2.90;;;1.08;;
50932;SDS011;36921;49.006;9.292;2023-04-12T07:48:11;1.70;;;1.13;;
50932;SDS011;36921;49.006;9.292;2023-04-12T07:53:58;3.70;;;1.10;;
50932;SDS011;36921;49.006;9.292;2023-04-12T07:56:23;1.90;;;1.20;;
50932;SDS011;36921;49.006;9.292;2023-04-12T07:58:49;3.03;;;1.27;;
50932;SDS011;36921;49.006;9.292;2023-04-12T08:01:15;2.22;;;1.15;;
50932;SDS011;36921;49.006;9.292;2023-04-12T08:03:40;4.68;;;1.27;;
50932;SDS011;36921;49.006;9.292;2023-04-12T08:06:06;2.13;;;1.38;;
50932;SDS011;36921;49.006;9.292;2023-04-12T08:08:32;1.40;;;0.75;;
50932;SDS011;36921;49.006;9.292;2023-04-12T08:10:57;5.70;;;1.27;;
50932;SDS011;36921;49.006;9.292;2023-04-12T08:13:22;1.90;;;1.30;;
50932;SDS011;36921;49.006;9.292;2023-04-12T08:15:48;2.60;;;1.08;;
50932;SDS011;36921;49.006;9.292;2023-04-12T08:18:13;4.25;;;1.10;;
50932;SDS011;36921;49.006;9.292;2023-04-12T08:20:39;2.58;;;1.10;;
50932;SDS011;36921;49.006;9.292;2023-04-12T08:23:05;4.22;;;1.00;;
50932;SDS011;36921;49.006;9.292;2023-04-12T08:25:31;4.43;;;1.40;;
50932;SDS011;36921;49.006;9.292;2023-04-12T08:27:57;2.22;;;1.20;;
50932;SDS011;36921;49.006;9.292;2023-04-12T08:30:22;4.28;;;0.85;;
50932;SDS011;36921;49.006;9.292;2023-04-12T08:32:50;3.40;;;1.27;;
50932;SDS011;36921;49.006;9.292;2023-04-12T08:35:16;3.30;;;1.40;;
50932;SDS011;36921;49.006;9.292;2023-04-12T08:37:41;2.15;;;1.13;;
50932;SDS011;36921;49.006;9.292;2023-04-12T08:40:07;2.50;;;1.30;;
50932;SDS011;36921;49.006;9.292;2023-04-12T08:42:33;5.85;;;1.60;;
50932;SDS011;36921;49.006;9.292;2023-04-12T08:45:04;3.25;;;1.55;;
50932;SDS011;36921;49.006;9.292;2023-04-12T08:47:31;2.58;;;1.27;;
50932;SDS011;36921;49.006;9.292;2023-04-12T08:49:59;4.50;;;1.50;;
50932;SDS011;36921;49.006;9.292;2023-04-12T08:52:25;3.55;;;1.52;;
50932;SDS011;36921;49.006;9.292;2023-04-12T08:54:51;3.33;;;1.23;;
50932;SDS011;36921;49.006;9.292;2023-04-12T08:57:16;3.40;;;1.73;;
50932;SDS011;36921;49.006;9.292;2023-04-12T08:59:42;5.00;;;1.48;;
50932;SDS011;36921;49.006;9.292;2023-04-12T09:02:09;2.70;;;1.30;;
50932;SDS011;36921;49.006;9.292;2023-04-12T09:04:47;2.55;;;1.00;;
50932;SDS011;36921;49.006;9.292;2023-04-12T09:07:13;3.38;;;1.15;;
50932;SDS011;36921;49.006;9.292;2023-04-12T09:09:48;2.72;;;1.70;;
50932;SDS011;36921;49.006;9.292;2023-04-12T09:12:14;3.08;;;1.20;;
50932;SDS011;36921;49.006;9.292;2023-04-12T09:14:40;3.13;;;1.55;;
50932;SDS011;36921;49.006;9.292;2023-04-12T09:17:25;2.17;;;1.27;;
50932;SDS011;36921;49.006;9.292;2023-04-12T09:19:51;3.53;;;1.13;;
50932;SDS011;36921;49.006;9.292;2023-04-12T09:22:18;2.50;;;1.27;;
50932;SDS011;36921;49.006;9.292;2023-04-12T09:24:57;3.30;;;1.30;;
50932;SDS011;36921;49.006;9.292;2023-04-12T09:27:22;3.00;;;1.35;;
50932;SDS011;36921;49.006;9.292;2023-04-12T09:29:49;5.07;;;1.33;;
50932;SDS011;36921;49.006;9.292;2023-04-12T09:32:15;3.20;;;1.20;;
50932;SDS011;36921;49.006;9.292;2023-04-12T09:34:56;1.88;;;0.98;;
50932;SDS011;36921;49.006;9.292;2023-04-12T09:37:23;3.67;;;1.17;;
50932;SDS011;36921;49.006;9.292;2023-04-12T09:39:57;2.72;;;1.42;;
50932;SDS011;36921;49.006;9.292;2023-04-12T09:42:28;3.90;;;1.05;;
50932;SDS011;36921;49.006;9.292;2023-04-12T09:44:55;2.70;;;1.20;;
50932;SDS011;36921;49.006;9.292;2023-04-12T09:47:21;3.47;;;1.23;;
50932;SDS011;36921;49.006;9.292;2023-04-12T09:49:48;3.05;;;1.40;;
50932;SDS011;36921;49.006;9.292;2023-04-12T09:52:14;2.47;;;1.30;;
50932;SDS011;36921;49.006;9.292;2023-04-12T09:54:43;5.85;;;1.50;;
50932;SDS011;36921;49.006;9.292;2023-04-12T09:57:10;4.50;;;1.73;;
50932;SDS011;36921;49.006;9.292;2023-04-12T09:59:37;5.32;;;1.67;;
50932;SDS011;36921;49.006;9.292;2023-04-12T10:02:12;1.92;;;1.10;;
50932;SDS011;36921;49.006;9.292;2023-04-12T10:04:40;2.72;;;1.38;;
50932;SDS011;36921;49.006;9.292;2023-04-12T10:07:06;6.22;;;1.85;;
50932;SDS011;36921;49.006;9.292;2023-04-12T10:09:32;5.50;;;1.33;;
50932;SDS011;36921;49.006;9.292;2023-04-12T10:11:59;4.70;;;1.60;;
50932;SDS011;36921;49.006;9.292;2023-04-12T10:14:26;4.43;;;1.20;;
50932;SDS011;36921;49.006;9.292;2023-04-12T10:16:53;4.40;;;1.40;;
50932;SDS011;36921;49.006;9.292;2023-04-12T10:19:22;2.50;;;1.67;;
50932;SDS011;36921;49.006;9.292;2023-04-12T10:21:49;3.05;;;1.45;;
50932;SDS011;36921;49.006;9.292;2023-04-12T10:24:14;8.25;;;1.58;;
50932;SDS011;36921;49.006;9.292;2023-04-12T10:26:41;5.57;;;1.52;;
50932;SDS011;36921;49.006;9.292;2023-04-12T10:29:26;4.53;;;1.63;;
50932;SDS011;36921;49.006;9.292;2023-04-12T10:31:54;2.80;;;1.40;;
50932;SDS011;36921;49.006;9.292;2023-04-12T10:34:42;7.43;;;2.42;;
50932;SDS011;36921;49.006;9.292;2023-04-12T10:37:08;3.28;;;1.60;;
50932;SDS011;36921;49.006;9.292;2023-04-12T10:39:43;2.80;;;1.58;;
50932;SDS011;36921;49.006;9.292;2023-04-12T10:42:27;5.63;;;1.60;;
50932;SDS011;36921;49.006;9.292;2023-04-12T10:44:54;5.25;;;2.03;;
50932;SDS011;36921;49.006;9.292;2023-04-12T10:50:42;5.43;;;1.75;;
50932;SDS011;36921;49.006;9.292;2023-04-12T11:01:11;3.78;;;1.65;;
50932;SDS011;36921;49.006;9.292;2023-04-12T11:03:51;4.13;;;1.30;;
50932;SDS011;36921;49.006;9.292;2023-04-12T11:09:20;8.10;;;1.58;;
50932;SDS011;36921;49.006;9.292;2023-04-12T11:12:19;2.60;;;1.10;;
50932;SDS011;36921;49.006;9.292;2023-04-12T11:14:48;3.20;;;1.10;;
50932;SDS011;36921;49.006;9.292;2023-04-12T11:22:09;3.55;;;1.00;;
50932;SDS011;36921;49.006;9.292;2023-04-12T11:24:37;2.17;;;0.90;;
50932;SDS011;36921;49.006;9.292;2023-04-12T11:27:12;3.70;;;0.80;;
50932;SDS011;36921;49.006;9.292;2023-04-12T11:29:40;4.93;;;0.98;;
50932;SDS011;36921;49.006;9.292;2023-04-12T11:32:09;7.28;;;1.23;;
50932;SDS011;36921;49.006;9.292;2023-04-12T11:34:36;4.30;;;1.10;;
50932;SDS011;36921;49.006;9.292;2023-04-12T11:37:02;2.42;;;1.17;;
50932;SDS011;36921;49.006;9.292;2023-04-12T11:39:32;2.60;;;0.90;;
50932;SDS011;36921;49.006;9.292;2023-04-12T11:41:58;2.92;;;0.70;;
50932;SDS011;36921;49.006;9.292;2023-04-12T11:44:23;2.88;;;0.80;;
50932;SDS011;36921;49.006;9.292;2023-04-12T11:46:49;1.48;;;0.75;;
50932;SDS011;36921;49.006;9.292;2023-04-12T11:49:16;2.92;;;0.82;;
50932;SDS011;36921;49.006;9.292;2023-04-12T11:51:43;1.17;;;0.70;;
50932;SDS011;36921;49.006;9.292;2023-04-12T11:54:12;1.20;;;0.50;;
50932;SDS011;36921;49.006;9.292;2023-04-12T11:56:38;3.05;;;1.20;;
50932;SDS011;36921;49.006;9.292;2023-04-12T11:59:04;2.40;;;0.63;;
50932;SDS011;36921;49.006;9.292;2023-04-12T12:01:30;1.13;;;0.60;;
50932;SDS011;36921;49.006;9.292;2023-04-12T12:03:57;1.65;;;0.70;;
50932;SDS011;36921;49.006;9.292;2023-04-12T12:06:23;2.33;;;0.52;;
50932;SDS011;36921;49.006;9.292;2023-04-12T12:08:50;0.93;;;0.60;;
50932;SDS011;36921;49.006;9.292;2023-04-12T12:11:15;2.85;;;0.63;;
50932;SDS011;36921;49.006;9.292;2023-04-12T12:13:47;2.15;;;0.65;;
50932;SDS011;36921;49.006;9.292;2023-04-12T12:16:14;2.00;;;0.63;;
50932;SDS011;36921;49.006;9.292;2023-04-12T12:18:40;1.27;;;0.40;;
50932;SDS011;36921;49.006;9.292;2023-04-12T12:21:10;1.20;;;0.50;;
50932;SDS011;36921;49.006;9.292;2023-04-12T12:23:37;1.23;;;0.40;;
50932;SDS011;36921;49.006;9.292;2023-04-12T12:26:05;2.03;;;0.60;;
50932;SDS011;36921;49.006;9.292;2023-04-12T12:28:35;2.15;;;0.63;;
50932;SDS011;36921;49.006;9.292;2023-04-12T12:31:01;3.03;;;0.50;;
50932;SDS011;36921;49.006;9.292;2023-04-12T12:33:37;0.90;;;0.50;;
50932;SDS011;36921;49.006;9.292;2023-04-12T12:36:06;1.48;;;0.75;;
50932;SDS011;36921;49.006;9.292;2023-04-12T12:38:34;2.92;;;0.50;;
50932;SDS011;36921;49.006;9.292;2023-04-12T12:41:12;2.30;;;0.70;;
50932;SDS011;36921;49.006;9.292;2023-04-12T12:43:56;1.20;;;0.45;;
50932;SDS011;36921;49.006;9.292;2023-04-12T12:46:21;2.40;;;0.60;;
50932;SDS011;36921;49.006;9.292;2023-04-12T12:48:47;3.08;;;0.60;;
50932;SDS011;36921;49.006;9.292;2023-04-12T12:51:13;1.70;;;0.40;;
50932;SDS011;36921;49.006;9.292;2023-04-12T12:53:44;1.85;;;0.50;;
50932;SDS011;36921;49.006;9.292;2023-04-12T12:56:10;1.52;;;0.70;;
50932;SDS011;36921;49.006;9.292;2023-04-12T12:58:37;1.40;;;0.45;;
50932;SDS011;36921;49.006;9.292;2023-04-12T13:01:03;1.67;;;0.70;;
50932;SDS011;36921;49.006;9.292;2023-04-12T13:03:29;0.82;;;0.50;;
50932;SDS011;36921;49.006;9.292;2023-04-12T13:05:55;1.58;;;0.60;;
50932;SDS011;36921;49.006;9.292;2023-04-12T13:08:21;1.17;;;0.50;;
50932;SDS011;36921;49.006;9.292;2023-04-12T13:10:47;3.25;;;0.73;;
50932;SDS011;36921;49.006;9.292;2023-04-12T13:13:12;1.38;;;0.70;;
50932;SDS011;36921;49.006;9.292;2023-04-12T13:15:37;1.38;;;0.52;;
50932;SDS011;36921;49.006;9.292;2023-04-12T13:18:03;0.95;;;0.43;;
50932;SDS011;36921;49.006;9.292;2023-04-12T13:20:28;2.30;;;0.50;;
50932;SDS011;36921;49.006;9.292;2023-04-12T13:22:53;3.10;;;0.60;;
50932;SDS011;36921;49.006;9.292;2023-04-12T13:25:19;1.55;;;0.68;;
50932;SDS011;36921;49.006;9.292;2023-04-12T13:27:48;1.63;;;0.52;;
50932;SDS011;36921;49.006;9.292;2023-04-12T13:30:16;0.45;;;0.30;;
50932;SDS011;36921;49.006;9.292;2023-04-12T13:32:42;4.47;;;0.77;;
50932;SDS011;36921;49.006;9.292;2023-04-12T13:35:08;1.27;;;0.30;;
50932;SDS011;36921;49.006;9.292;2023-04-12T13:37:34;1.25;;;0.50;;
50932;SDS011;36921;49.006;9.292;2023-04-12T13:39:59;2.20;;;0.73;;
50932;SDS011;36921;49.006;9.292;2023-04-12T13:42:24;1.73;;;0.60;;
50932;SDS011;36921;49.006;9.292;2023-04-12T13:44:50;2.83;;;0.70;;
50932;SDS011;36921;49.006;9.292;2023-04-12T13:47:15;5.20;;;0.70;;
50932;SDS011;36921;49.006;9.292;2023-04-12T13:49:41;2.13;;;0.60;;
50932;SDS011;36921;49.006;9.292;2023-04-12T13:52:07;1.23;;;0.55;;
50932;SDS011;36921;49.006;9.292;2023-04-12T13:54:32;0.80;;;0.50;;
50932;SDS011;36921;49.006;9.292;2023-04-12T13:56:58;2.30;;;0.60;;
50932;SDS011;36921;49.006;9.292;2023-04-12T13:59:24;1.42;;;0.60;;
50932;SDS011;36921;49.006;9.292;2023-04-12T14:01:50;1.67;;;0.60;;
50932;SDS011;36921;49.006;9.292;2023-04-12T14:04:16;2.42;;;0.68;;
50932;SDS011;36921;49.006;9.292;2023-04-12T14:06:41;1.27;;;0.45;;
50932;SDS011;36921;49.006;9.292;2023-04-12T14:09:06;1.75;;;0.50;;
50932;SDS011;36921;49.006;9.292;2023-04-12T14:11:45;0.75;;;0.40;;
50932;SDS011;36921;49.006;9.292;2023-04-12T14:14:11;1.38;;;0.45;;
50932;SDS011;36921;49.006;9.292;2023-04-12T14:16:36;1.20;;;0.40;;
50932;SDS011;36921;49.006;9.292;2023-04-12T14:19:02;5.72;;;1.38;;
50932;SDS011;36921;49.006;9.292;2023-04-12T14:21:27;1.35;;;0.50;;
50932;SDS011;36921;49.006;9.292;2023-04-12T14:23:53;1.90;;;0.52;;
50932;SDS011;36921;49.006;9.292;2023-04-12T14:26:19;2.67;;;0.60;;
50932;SDS011;36921;49.006;9.292;2023-04-12T14:28:44;1.80;;;0.40;;
50932;SDS011;36921;49.006;9.292;2023-04-12T14:31:09;3.28;;;0.55;;
50932;SDS011;36921;49.006;9.292;2023-04-12T14:33:35;1.75;;;0.80;;
50932;SDS011;36921;49.006;9.292;2023-04-12T14:36:00;0.77;;;0.47;;
50932;SDS011;36921;49.006;9.292;2023-04-12T14:38:28;1.20;;;0.50;;
50932;SDS011;36921;49.006;9.292;2023-04-12T14:40:54;1.73;;;0.63;;
50932;SDS011;36921;49.006;9.292;2023-04-12T14:43:19;2.75;;;0.60;;
50932;SDS011;36921;49.006;9.292;2023-04-12T14:45:45;4.22;;;0.50;;
50932;SDS011;36921;49.006;9.292;2023-04-12T14:48:10;3.28;;;0.70;;
50932;SDS011;36921;49.006;9.292;2023-04-12T14:50:35;1.73;;;0.70;;
50932;SDS011;36921;49.006;9.292;2023-04-12T14:53:01;0.40;;;0.30;;
50932;SDS011;36921;49.006;9.292;2023-04-12T14:55:26;3.28;;;0.40;;
50932;SDS011;36921;49.006;9.292;2023-04-12T14:57:51;2.55;;;0.70;;
50932;SDS011;36921;49.006;9.292;2023-04-12T15:00:17;0.93;;;0.40;;
50932;SDS011;36921;49.006;9.292;2023-04-12T15:02:42;1.05;;;0.40;;
50932;SDS011;36921;49.006;9.292;2023-04-12T15:05:09;1.20;;;0.60;;
50932;SDS011;36921;49.006;9.292;2023-04-12T15:07:35;6.03;;;0.60;;
50932;SDS011;36921;49.006;9.292;2023-04-12T15:10:01;0.82;;;0.30;;
50932;SDS011;36921;49.006;9.292;2023-04-12T15:12:28;0.40;;;0.40;;
50932;SDS011;36921;49.006;9.292;2023-04-12T15:14:54;0.73;;;0.50;;
50932;SDS011;36921;49.006;9.292;2023-04-12T15:17:21;2.38;;;0.43;;
50932;SDS011;36921;49.006;9.292;2023-04-12T15:19:48;1.13;;;0.28;;
50932;SDS011;36921;49.006;9.292;2023-04-12T15:22:14;0.80;;;0.20;;
50932;SDS011;36921;49.006;9.292;2023-04-12T15:24:39;0.85;;;0.20;;
50932;SDS011;36921;49.006;9.292;2023-04-12T15:27:04;0.38;;;0.10;;